Aviation Digital Data Service (ADDS)

Output produced by METARs form (1043 UTC 30 March 2017)
found at http://aviationweather.gov/adds/metars/
 
KDUJ 300520Z 3006/3106 09006KT P6SM BKN120 
     FM301800 11010KT 5SM -RA OVC035 
     FM302200 15012KT P6SM BKN035 
     FM310300 14008KT 4SM -RA OVC025 WS020/20045KT